Latest Weather Observations for Scherger

IDQ60801

Issued at 7:02 pm EST Sunday 24 May 2015 (issued every 30 minutes, with the page automatically refreshed every 10 minutes)

About weather observations | Map of weather stations | Latest weather observations for QLD | Other Formats
Station Details ID: 027075 Name: SCHERGER RAAF Lat: -12.62 Lon: 142.09 Height: 39.34 m
Data from the previous 72 hours. | See also: Recent months at Scherger
Date/Time
EST
Temp
°C
App
Temp
°C
Dew
Point
Rel
Hum
%
Delta-T
°C
Wind Press
QNH
hPa
Press
MSL
hPa
Rain
since 9 am
mm
Dir
 
Spd
km/h
Gust
km/h
Spd
kts
Gust
kts
24/07:00pm 26.1 26.5 19.0 65 4.6 ESE 15 26 8 14 1015.0 1014.8 0.0
24/06:30pm 26.0 27.3 19.2 66 4.4 ESE 11 17 6 9 1014.7 1014.5 0.0
24/06:00pm 26.1 27.3 19.0 65 4.6 ESE 11 19 6 10 1014.4 1014.2 0.0
24/05:30pm 26.9 28.6 19.3 63 4.9 ESE 9 17 5 9 1013.8 1013.6 0.0
24/05:00pm 27.7 28.2 19.2 60 5.5 ESE 15 26 8 14 1013.6 1013.4 0.0
24/04:30pm 27.4 27.5 19.2 61 5.3 ESE 17 32 9 17 1013.4 1013.2 0.0
24/04:00pm 28.5 28.9 19.1 56 6.1 ESE 15 22 8 12 1013.2 1013.0 0.0
24/03:30pm 28.9 29.3 18.9 54 6.5 ESE 15 28 8 15 1013.0 1012.8 0.0
24/03:00pm 29.6 30.1 19.3 54 6.7 ESE 15 24 8 13 1012.9 1012.7 0.0
24/02:30pm 29.4 29.1 19.1 54 6.7 ESE 19 28 10 15 1013.0 1012.8 0.0
24/02:00pm 29.5 29.1 18.9 53 6.9 ESE 19 35 10 19 1013.2 1013.0 0.0
24/01:30pm 30.0 29.9 18.8 51 7.3 ESE 17 30 9 16 1013.6 1013.4 0.0
24/01:00pm 30.8 31.2 19.8 52 7.2 E 17 24 9 13 1013.9 1013.7 0.0
24/12:30pm 29.8 29.8 18.9 52 7.1 E 17 28 9 15 1014.3 1014.1 0.0
24/12:00pm 29.6 29.2 19.0 53 6.9 E 19 32 10 17 1014.6 1014.4 0.0
24/11:30am 29.1 28.6 19.1 54 6.5 E 20 32 11 17 1014.9 1014.7 0.0
24/11:00am 28.2 28.6 19.1 57 5.9 E 15 28 8 15 1015.3 1015.1 0.0
24/10:30am 27.5 27.7 19.3 61 5.3 E 17 32 9 17 1015.6 1015.4 0.0
24/10:00am 27.1 28.0 19.2 62 5.1 ESE 13 26 7 14 1015.8 1015.6 0.0
24/09:00am 25.4 26.2 19.8 71 3.6 ESE 15 24 8 13 1015.9 1015.7 0.0
24/08:30am 23.7 25.6 19.8 79 2.5 ESE 9 15 5 8 1015.6 1015.4 0.0
24/08:00am 21.8 23.2 19.5 87 1.5 SSE 11 15 6 8 1015.4 1015.2 0.0
24/07:30am 20.7 22.3 19.2 91 0.9 SSE 9 15 5 8 1015.1 1014.9 0.0
24/07:00am 20.2 21.7 18.9 92 0.8 SSE 9 13 5 7 1014.8 1014.6 0.0
24/06:30am 20.1 21.6 18.8 92 0.8 SSE 9 11 5 6 1014.6 1014.4 0.0
24/05:30am 20.3 22.3 18.8 91 0.9 SSE 6 11 3 6 1014.1 1013.9 0.0
24/05:00am 20.4 22.0 19.1 92 0.8 SSE 9 15 5 8 1014.1 1013.9 0.0
24/04:30am 20.2 22.0 18.7 91 0.9 SSE 7 9 4 5 1014.2 1014.0 0.0
24/04:00am 20.2 22.1 18.5 90 1.1 SSE 6 9 3 5 1014.2 1014.0 0.0
24/03:30am 20.5 23.7 18.8 90 1.1 CALM 0 0 0 0 1014.2 1014.0 0.0
24/03:00am 20.5 23.6 18.6 89 1.2 CALM 0 0 0 0 1014.4 1014.2 0.0
24/02:30am 20.9 24.1 18.8 88 1.3 CALM 0 0 0 0 1014.4 1014.2 0.0
24/02:00am 21.2 24.4 18.8 86 1.5 CALM 0 0 0 0 1014.5 1014.3 0.0
24/01:30am 21.4 24.6 18.8 85 1.6 CALM 0 0 0 0 1014.7 1014.5 0.0
24/01:00am 21.7 24.9 18.9 84 1.8 CALM 0 0 0 0 1014.7 1014.5 0.0
24/12:30am 22.1 25.4 19.1 83 1.9 CALM 0 4 0 2 1014.7 1014.5 0.0
24/12:00am 22.6 25.7 19.4 82 2.0 SE 2 7 1 4 1014.8 1014.6 0.0
 
Date/Time
EST
Temp
°C
App
Temp
°C
Dew
Point
Rel
Hum
%
Delta-T
°C
Wind Press
QNH
hPa
Press
MSL
hPa
Rain
since 9 am
mm
Dir
 
Spd
km/h
Gust
km/h
Spd
kts
Gust
kts
23/11:30pm 22.9 25.1 19.3 80 2.3 ESE 6 9 3 5 1015.1 1014.9 0.0
23/11:00pm 23.1 25.3 19.1 78 2.5 ESE 6 9 3 5 1015.3 1015.1 0.0
23/10:30pm 23.5 25.4 19.0 76 2.9 ESE 7 11 4 6 1015.5 1015.3 0.0
23/10:00pm 24.1 26.1 19.2 74 3.1 ESE 7 11 4 6 1015.6 1015.4 0.0
23/09:30pm 24.4 26.3 19.0 72 3.4 ESE 7 11 4 6 1015.7 1015.5 0.0
23/09:00pm 24.9 26.1 19.0 69 3.8 ESE 11 19 6 10 1015.6 1015.4 0.0
23/08:30pm 25.3 26.5 19.0 68 4.0 ESE 11 19 6 10 1015.4 1015.2 0.0
23/08:00pm 25.7 27.3 19.1 67 4.2 E 9 17 5 9 1015.0 1014.8 0.0
23/07:30pm 25.4 27.8 18.8 67 4.2 E 4 9 2 5 1014.4 1014.2 0.0
23/07:00pm 26.1 28.0 18.5 63 4.8 E 6 9 3 5 1014.2 1014.0 0.0
23/06:30pm 26.8 28.5 18.6 60 5.2 E 7 13 4 7 1013.8 1013.6 0.0
23/06:00pm 27.6 29.1 18.9 59 5.6 E 9 15 5 8 1013.6 1013.4 0.0
23/05:30pm 28.7 29.9 18.2 53 6.7 ESE 9 17 5 9 1013.3 1013.1 0.0
23/05:00pm 29.7 30.1 18.2 50 7.4 E 13 17 7 9 1013.0 1012.8 0.0
23/04:30pm 30.9 32.0 18.9 48 7.8 ESE 11 20 6 11 1012.8 1012.6 0.0
23/04:00pm 30.7 31.4 18.8 49 7.7 E 13 20 7 11 1012.7 1012.5 0.0
23/03:30pm 31.0 32.9 19.7 51 7.4 ESE 9 13 5 7 1012.6 1012.4 0.0
23/03:00pm 30.6 32.1 19.0 50 7.5 E 9 22 5 12 1012.6 1012.4 0.0
23/02:30pm 32.1 33.6 19.0 45 8.6 E 9 20 5 11 1012.7 1012.5 0.0
23/02:00pm 30.0 30.5 18.4 49 7.5 ESE 13 20 7 11 1012.9 1012.7 0.0
23/01:30pm 32.3 33.5 19.9 48 8.2 ESE 13 22 7 12 1013.2 1013.0 0.0
23/01:00pm 30.5 30.3 18.6 49 7.7 ENE 17 28 9 15 1013.5 1013.3 0.0
23/12:30pm 30.7 31.7 19.4 51 7.4 ESE 13 22 7 12 1014.0 1013.8 0.0
23/12:00pm 31.3 32.7 20.3 52 7.3 E 13 20 7 11 1014.5 1014.3 0.0
23/11:30am 30.5 31.9 21.0 57 6.4 E 15 24 8 13 1014.9 1014.7 0.0
23/11:00am 29.2 30.6 20.4 59 5.8 ESE 13 24 7 13 1015.3 1015.1 0.0
23/10:30am 28.5 29.7 20.0 60 5.6 E 13 22 7 12 1015.6 1015.4 0.0
23/10:00am 27.6 28.6 20.2 64 4.8 E 15 22 8 12 1016.0 1015.8 0.0
23/09:30am 27.3 29.2 20.6 67 4.4 E 11 19 6 10 1016.0 1015.8 0.0
23/09:00am 25.5 27.7 20.5 74 3.3 SE 9 19 5 10 1016.1 1015.9 0.0
23/08:30am 23.9 25.6 20.2 80 2.4 SE 11 15 6 8 1015.9 1015.7 0.0
23/08:00am 22.1 24.2 20.2 89 1.2 SSE 9 11 5 6 1015.8 1015.6 0.0
23/07:30am 21.3 23.2 19.8 91 1.0 SSE 9 13 5 7 1015.6 1015.4 0.0
23/07:00am 20.7 22.5 19.5 93 0.8 S 9 11 5 6 1015.4 1015.2 0.0
23/06:30am 20.3 22.2 19.0 92 0.8 S 7 11 4 6 1015.1 1014.9 0.0
23/06:00am 20.0 21.8 18.7 92 0.8 S 7 9 4 5 1014.8 1014.6 0.0
23/05:30am 20.2 22.1 18.9 92 0.8 S 7 9 4 5 1014.7 1014.5 0.0
23/05:00am 20.0 22.9 18.3 90 1.1 CALM 0 0 0 0 1014.5 1014.3 0.0
23/04:30am 20.3 23.4 18.6 90 1.1 CALM 0 0 0 0 1014.5 1014.3 0.0
23/04:00am 20.3 23.3 18.4 89 1.2 CALM 0 0 0 0 1014.4 1014.2 0.0
23/03:30am 20.6 23.6 18.5 88 1.3 CALM 0 0 0 0 1014.5 1014.3 0.0
23/03:00am 21.2 24.4 18.8 86 1.5 CALM 0 0 0 0 1014.5 1014.3 0.0
23/02:30am 21.7 25.0 19.1 85 1.6 CALM 0 0 0 0 1014.7 1014.5 0.0
23/02:00am 22.0 25.0 19.2 84 1.8 SE 2 7 1 4 1014.9 1014.7 0.0
23/01:30am 22.4 25.4 19.2 82 2.0 E 2 6 1 3 1014.9 1014.7 0.0
23/01:00am 22.9 25.1 19.3 80 2.3 E 6 9 3 5 1015.0 1014.8 0.0
23/12:30am 23.5 25.6 19.4 78 2.6 E 7 13 4 7 1015.4 1015.2 0.0
23/12:00am 23.3 25.3 18.8 76 2.8 SE 6 9 3 5 1015.5 1015.3 0.0
 
Date/Time
EST
Temp
°C
App
Temp
°C
Dew
Point
Rel
Hum
%
Delta-T
°C
Wind Press
QNH
hPa
Press
MSL
hPa
Rain
since 9 am
mm
Dir
 
Spd
km/h
Gust
km/h
Spd
kts
Gust
kts
22/11:30pm 23.7 25.5 18.8 74 3.1 SE 7 11 4 6 1015.6 1015.4 0.0
22/11:00pm 24.1 26.1 18.7 72 3.4 SE 6 7 3 4 1015.6 1015.4 0.0
22/10:30pm 24.5 26.3 18.4 69 3.9 SE 6 9 3 5 1015.6 1015.4 0.0
22/10:00pm 25.3 26.9 18.2 64 4.5 ESE 7 11 4 6 1015.6 1015.4 0.0
22/09:30pm 26.3 28.1 18.7 63 4.9 ESE 7 11 4 6 1015.6 1015.4 0.0
22/09:00pm 26.6 29.6 20.0 67 4.3 NNE 4 7 2 4 1015.5 1015.3 0.0
22/08:30pm 26.8 30.3 21.8 74 3.3 NNW 6 9 3 5 1015.1 1014.9 0.0
22/08:00pm 26.9 31.0 21.6 72 3.5 NE 2 7 1 4 1014.8 1014.6 0.0
22/07:30pm 27.2 30.4 21.7 72 3.7 NNE 7 11 4 6 1014.2 1014.0 0.0
22/07:00pm 27.7 31.1 21.7 70 4.0 SW 6 11 3 6 1013.9 1013.7 0.0
22/06:30pm 28.4 32.1 19.9 60 5.6 CALM 0 7 0 4 1013.4 1013.2 0.0
22/06:00pm 29.0 31.2 19.3 55 6.3 ESE 6 9 3 5 1012.9 1012.7 0.0
22/05:30pm 29.8 33.2 20.1 56 6.4 E 2 7 1 4 1012.6 1012.4 0.0
22/05:00pm 30.7 32.3 19.1 50 7.6 E 9 11 5 6 1012.4 1012.2 0.0
22/04:30pm 32.6 34.6 19.1 44 8.8 SSE 7 11 4 6 1012.2 1012.0 0.0
22/04:00pm 32.8 34.5 19.3 45 8.9 ESE 9 13 5 7 1012.1 1011.9 0.0
22/03:30pm 32.3 33.4 18.8 44 8.8 SSE 11 19 6 10 1012.2 1012.0 0.0
22/03:00pm 32.8 34.1 19.3 45 8.9 SE 11 20 6 11 1012.4 1012.2 0.0
22/02:30pm 32.8 33.8 17.8 40 9.7 SE 9 17 5 9 1012.5 1012.3 0.0
22/02:00pm 32.6 33.1 18.4 43 9.2 ESE 13 20 7 11 1012.8 1012.6 0.0
22/01:30pm 32.5 33.4 17.5 40 9.6 SE 9 17 5 9 1013.1 1012.9 0.0
22/01:00pm 31.8 32.5 18.0 43 8.9 SSE 11 20 6 11 1013.7 1013.5 0.0
22/12:30pm 31.2 32.7 18.9 48 8.0 ESE 9 15 5 8 1014.1 1013.9 0.0
22/12:00pm 30.9 33.6 20.2 53 7.1 SSE 6 9 3 5 1014.6 1014.4 0.0
22/11:30am 30.5 31.9 19.5 51 7.2 ESE 11 17 6 9 1015.2 1015.0 0.0
22/11:00am 29.6 31.8 20.5 58 6.0 ESE 9 15 5 8 1015.7 1015.5 0.0
22/10:30am 29.1 31.1 20.8 61 5.5 ESE 11 17 6 9 1016.0 1015.8 0.0
22/10:00am 27.7 29.2 20.5 65 4.7 SE 13 17 7 9 1016.3 1016.1 0.0
22/09:30am 26.7 28.9 20.5 69 4.1 ESE 9 15 5 8 1016.4 1016.2 0.0
22/09:00am 25.9 28.7 20.9 74 3.3 SE 7 13 4 7 1016.6 1016.4 0.0
22/08:30am 24.3 26.8 21.0 82 2.2 SSE 9 15 5 8 1016.5 1016.3 0.0
22/08:00am 22.9 26.0 21.4 91 1.0 SSE 7 9 4 5 1016.6 1016.4 0.0
22/07:30am 21.0 24.6 19.8 93 0.8 CALM 0 0 0 0 1016.2 1016.0 0.0
22/07:00am 20.2 23.4 18.9 92 0.8 CALM 0 0 0 0 1016.1 1015.9 0.0
22/06:30am 20.3 23.6 19.0 92 0.8 CALM 0 0 0 0 1015.8 1015.6 0.0
22/06:00am 20.4 23.6 18.9 91 0.9 CALM 0 0 0 0 1015.6 1015.4 0.0
22/05:30am 20.3 23.5 18.8 91 0.9 CALM 0 0 0 0 1015.2 1015.0 0.0
22/05:00am 20.4 23.6 18.9 91 0.9 CALM 0 0 0 0 1015.0 1014.8 0.0
22/04:30am 20.5 23.8 19.0 91 0.9 CALM 0 0 0 0 1014.9 1014.7 0.0
22/04:00am 20.6 23.8 18.9 90 1.1 CALM 0 0 0 0 1014.9 1014.7 0.0
22/03:30am 20.9 24.2 19.2 90 1.1 CALM 0 0 0 0 1015.0 1014.8 0.0
22/03:00am 21.1 24.5 19.4 90 1.1 CALM 0 0 0 0 1015.2 1015.0 0.0
22/02:30am 21.2 24.7 19.5 90 1.1 CALM 0 0 0 0 1015.3 1015.1 0.0
22/02:00am 21.4 24.9 19.5 89 1.2 CALM 0 0 0 0 1015.2 1015.0 0.0
22/01:30am 21.7 25.2 19.6 88 1.3 CALM 0 0 0 0 1015.3 1015.1 0.0
22/01:00am 22.1 25.6 19.6 86 1.6 CALM 0 0 0 0 1015.5 1015.3 0.0
22/12:30am 22.7 26.4 20.0 85 1.7 CALM 0 0 0 0 1015.7 1015.5 0.0
22/12:00am 23.1 26.9 20.2 84 1.9 CALM 0 0 0 0 1015.9 1015.7 0.0
 
Date/Time
EST
Temp
°C
App
Temp
°C
Dew
Point
Rel
Hum
%
Delta-T
°C
Wind Press
QNH
hPa
Press
MSL
hPa
Rain
since 9 am
mm
Dir
 
Spd
km/h
Gust
km/h
Spd
kts
Gust
kts
21/11:30pm 23.7 27.5 20.2 81 2.3 CALM 0 2 0 1 1016.1 1015.9 0.0
21/11:00pm 24.3 28.3 20.6 80 2.4 CALM 0 0 0 0 1016.2 1016.0 0.0
21/10:30pm 25.0 28.8 20.9 78 2.7 ESE 2 6 1 3 1016.3 1016.1 0.0
21/10:00pm 25.3 29.1 21.0 77 2.8 E 2 7 1 4 1016.1 1015.9 0.0
21/09:30pm 25.3 29.5 21.0 77 2.8 CALM 0 0 0 0 1015.8 1015.6 0.0
21/09:00pm 26.5 30.9 21.3 73 3.5 CALM 0 6 0 3 1015.4 1015.2 0.0
21/08:30pm 27.0 31.7 22.6 77 3.0 NNE 2 7 1 4 1015.3 1015.1 0.0
21/08:00pm 27.1 32.1 22.5 76 3.1 CALM 0 0 0 0 1014.9 1014.7 0.0
21/07:30pm 27.5 31.3 22.7 75 3.3 WSW 7 15 4 8 1014.3 1014.1 0.0

Other Formats:

Comma delimited format used in spreadsheet applications
http://www.bom.gov.au/fwo/IDQ60801/IDQ60801.94171.axf

JavaScript Object Notation format (JSON) in row-major order
http://www.bom.gov.au/fwo/IDQ60801/IDQ60801.94171.json